sensor_id;sensor_type;location;lat;lon;timestamp;P1;durP1;ratioP1;P2;durP2;ratioP2
25913;SDS011;13718;50.922;5.346;2022-08-25T00:00:59;9.75;;;3.72;;
25913;SDS011;13718;50.922;5.346;2022-08-25T00:03:25;9.57;;;3.50;;
25913;SDS011;13718;50.922;5.346;2022-08-25T00:05:51;8.93;;;3.88;;
25913;SDS011;13718;50.922;5.346;2022-08-25T00:08:17;8.77;;;3.50;;
25913;SDS011;13718;50.922;5.346;2022-08-25T00:10:42;9.73;;;3.80;;
25913;SDS011;13718;50.922;5.346;2022-08-25T00:13:08;8.10;;;3.60;;
25913;SDS011;13718;50.922;5.346;2022-08-25T00:15:34;16.98;;;3.83;;
25913;SDS011;13718;50.922;5.346;2022-08-25T00:18:00;7.90;;;3.95;;
25913;SDS011;13718;50.922;5.346;2022-08-25T00:20:26;7.32;;;3.75;;
25913;SDS011;13718;50.922;5.346;2022-08-25T00:22:52;8.63;;;3.85;;
25913;SDS011;13718;50.922;5.346;2022-08-25T00:25:19;11.88;;;4.43;;
25913;SDS011;13718;50.922;5.346;2022-08-25T00:27:45;9.90;;;3.85;;
25913;SDS011;13718;50.922;5.346;2022-08-25T00:30:13;6.97;;;3.88;;
25913;SDS011;13718;50.922;5.346;2022-08-25T00:32:40;11.48;;;3.78;;
25913;SDS011;13718;50.922;5.346;2022-08-25T00:35:06;10.60;;;4.15;;
25913;SDS011;13718;50.922;5.346;2022-08-25T00:37:31;8.63;;;4.78;;
25913;SDS011;13718;50.922;5.346;2022-08-25T00:39:57;10.98;;;5.20;;
25913;SDS011;13718;50.922;5.346;2022-08-25T00:42:23;10.52;;;4.70;;
25913;SDS011;13718;50.922;5.346;2022-08-25T00:44:50;10.90;;;4.40;;
25913;SDS011;13718;50.922;5.346;2022-08-25T00:47:16;13.30;;;4.82;;
25913;SDS011;13718;50.922;5.346;2022-08-25T00:49:44;10.45;;;4.90;;
25913;SDS011;13718;50.922;5.346;2022-08-25T00:52:23;9.40;;;4.53;;
25913;SDS011;13718;50.922;5.346;2022-08-25T00:57:36;12.95;;;5.13;;
25913;SDS011;13718;50.922;5.346;2022-08-25T01:00:13;10.80;;;4.57;;
25913;SDS011;13718;50.922;5.346;2022-08-25T01:02:50;10.43;;;4.70;;
25913;SDS011;13718;50.922;5.346;2022-08-25T01:05:16;9.05;;;4.85;;
25913;SDS011;13718;50.922;5.346;2022-08-25T01:07:43;10.07;;;4.53;;
25913;SDS011;13718;50.922;5.346;2022-08-25T01:10:09;11.45;;;4.60;;
25913;SDS011;13718;50.922;5.346;2022-08-25T01:12:37;9.82;;;4.93;;
25913;SDS011;13718;50.922;5.346;2022-08-25T01:15:04;10.73;;;5.13;;
25913;SDS011;13718;50.922;5.346;2022-08-25T01:17:38;9.17;;;4.93;;
25913;SDS011;13718;50.922;5.346;2022-08-25T01:20:14;8.30;;;4.78;;
25913;SDS011;13718;50.922;5.346;2022-08-25T01:22:40;10.70;;;4.55;;
25913;SDS011;13718;50.922;5.346;2022-08-25T01:25:27;9.32;;;4.97;;
25913;SDS011;13718;50.922;5.346;2022-08-25T01:28:04;17.25;;;6.50;;
25913;SDS011;13718;50.922;5.346;2022-08-25T01:30:29;10.40;;;5.63;;
25913;SDS011;13718;50.922;5.346;2022-08-25T01:32:55;11.15;;;5.65;;
25913;SDS011;13718;50.922;5.346;2022-08-25T01:35:21;13.70;;;5.75;;
25913;SDS011;13718;50.922;5.346;2022-08-25T01:37:46;12.60;;;5.30;;
25913;SDS011;13718;50.922;5.346;2022-08-25T01:40:12;11.52;;;5.13;;
25913;SDS011;13718;50.922;5.346;2022-08-25T01:42:57;10.40;;;5.60;;
25913;SDS011;13718;50.922;5.346;2022-08-25T01:45:41;10.63;;;5.78;;
25913;SDS011;13718;50.922;5.346;2022-08-25T01:48:08;17.67;;;6.13;;
25913;SDS011;13718;50.922;5.346;2022-08-25T01:50:35;11.43;;;5.40;;
25913;SDS011;13718;50.922;5.346;2022-08-25T01:53:03;13.98;;;5.30;;
25913;SDS011;13718;50.922;5.346;2022-08-25T01:55:32;9.35;;;5.05;;
25913;SDS011;13718;50.922;5.346;2022-08-25T01:58:16;10.05;;;5.05;;
25913;SDS011;13718;50.922;5.346;2022-08-25T02:00:51;14.98;;;5.40;;
25913;SDS011;13718;50.922;5.346;2022-08-25T02:03:18;8.77;;;5.65;;
25913;SDS011;13718;50.922;5.346;2022-08-25T02:05:44;12.48;;;5.63;;
25913;SDS011;13718;50.922;5.346;2022-08-25T02:08:10;12.95;;;5.70;;
25913;SDS011;13718;50.922;5.346;2022-08-25T02:10:36;7.95;;;4.88;;
25913;SDS011;13718;50.922;5.346;2022-08-25T02:13:02;9.63;;;4.88;;
25913;SDS011;13718;50.922;5.346;2022-08-25T02:15:29;8.05;;;5.20;;
25913;SDS011;13718;50.922;5.346;2022-08-25T02:17:55;12.80;;;5.00;;
25913;SDS011;13718;50.922;5.346;2022-08-25T02:20:21;8.85;;;5.72;;
25913;SDS011;13718;50.922;5.346;2022-08-25T02:22:48;11.82;;;5.30;;
25913;SDS011;13718;50.922;5.346;2022-08-25T02:25:17;10.25;;;5.47;;
25913;SDS011;13718;50.922;5.346;2022-08-25T02:27:43;13.75;;;5.55;;
25913;SDS011;13718;50.922;5.346;2022-08-25T02:30:09;9.23;;;5.15;;
25913;SDS011;13718;50.922;5.346;2022-08-25T02:32:37;10.80;;;5.30;;
25913;SDS011;13718;50.922;5.346;2022-08-25T02:35:03;14.02;;;5.35;;
25913;SDS011;13718;50.922;5.346;2022-08-25T02:37:30;11.75;;;5.18;;
25913;SDS011;13718;50.922;5.346;2022-08-25T02:39:56;9.02;;;5.10;;
25913;SDS011;13718;50.922;5.346;2022-08-25T02:42:21;11.00;;;5.63;;
25913;SDS011;13718;50.922;5.346;2022-08-25T02:44:48;10.98;;;5.32;;
25913;SDS011;13718;50.922;5.346;2022-08-25T02:47:14;12.20;;;5.20;;
25913;SDS011;13718;50.922;5.346;2022-08-25T02:49:40;10.80;;;5.18;;
25913;SDS011;13718;50.922;5.346;2022-08-25T02:52:06;8.45;;;5.00;;
25913;SDS011;13718;50.922;5.346;2022-08-25T02:54:32;8.07;;;4.80;;
25913;SDS011;13718;50.922;5.346;2022-08-25T02:56:58;10.18;;;5.68;;
25913;SDS011;13718;50.922;5.346;2022-08-25T02:59:24;8.68;;;4.70;;
25913;SDS011;13718;50.922;5.346;2022-08-25T03:01:49;10.63;;;5.35;;
25913;SDS011;13718;50.922;5.346;2022-08-25T03:04:15;12.60;;;5.47;;
25913;SDS011;13718;50.922;5.346;2022-08-25T03:06:41;12.35;;;5.10;;
25913;SDS011;13718;50.922;5.346;2022-08-25T03:09:06;10.13;;;5.40;;
25913;SDS011;13718;50.922;5.346;2022-08-25T03:11:32;13.57;;;5.22;;
25913;SDS011;13718;50.922;5.346;2022-08-25T03:13:58;14.02;;;5.65;;
25913;SDS011;13718;50.922;5.346;2022-08-25T03:16:23;13.90;;;5.90;;
25913;SDS011;13718;50.922;5.346;2022-08-25T03:18:49;11.70;;;5.50;;
25913;SDS011;13718;50.922;5.346;2022-08-25T03:21:15;9.70;;;5.05;;
25913;SDS011;13718;50.922;5.346;2022-08-25T03:23:41;10.13;;;5.80;;
25913;SDS011;13718;50.922;5.346;2022-08-25T03:26:07;10.55;;;5.75;;
25913;SDS011;13718;50.922;5.346;2022-08-25T03:28:52;13.43;;;5.68;;
25913;SDS011;13718;50.922;5.346;2022-08-25T03:31:19;9.70;;;5.55;;
25913;SDS011;13718;50.922;5.346;2022-08-25T03:33:46;14.00;;;6.80;;
25913;SDS011;13718;50.922;5.346;2022-08-25T03:36:11;11.30;;;6.40;;
25913;SDS011;13718;50.922;5.346;2022-08-25T03:38:37;13.82;;;6.63;;
25913;SDS011;13718;50.922;5.346;2022-08-25T03:41:14;10.32;;;6.10;;
25913;SDS011;13718;50.922;5.346;2022-08-25T03:43:44;12.85;;;7.07;;
25913;SDS011;13718;50.922;5.346;2022-08-25T03:46:17;14.00;;;7.90;;
25913;SDS011;13718;50.922;5.346;2022-08-25T03:48:44;14.45;;;7.15;;
25913;SDS011;13718;50.922;5.346;2022-08-25T03:51:10;10.20;;;6.50;;
25913;SDS011;13718;50.922;5.346;2022-08-25T03:53:35;11.35;;;6.35;;
25913;SDS011;13718;50.922;5.346;2022-08-25T03:56:01;11.85;;;6.20;;
25913;SDS011;13718;50.922;5.346;2022-08-25T03:58:27;12.68;;;6.30;;
25913;SDS011;13718;50.922;5.346;2022-08-25T04:00:52;12.85;;;6.75;;
25913;SDS011;13718;50.922;5.346;2022-08-25T04:03:19;10.63;;;6.60;;
25913;SDS011;13718;50.922;5.346;2022-08-25T04:05:44;12.85;;;6.72;;
25913;SDS011;13718;50.922;5.346;2022-08-25T04:08:11;12.98;;;5.95;;
25913;SDS011;13718;50.922;5.346;2022-08-25T04:10:36;17.10;;;7.20;;
25913;SDS011;13718;50.922;5.346;2022-08-25T04:13:02;16.80;;;6.95;;
25913;SDS011;13718;50.922;5.346;2022-08-25T04:15:27;15.05;;;6.95;;
25913;SDS011;13718;50.922;5.346;2022-08-25T04:17:53;17.38;;;7.90;;
25913;SDS011;13718;50.922;5.346;2022-08-25T04:20:19;17.48;;;7.80;;
25913;SDS011;13718;50.922;5.346;2022-08-25T04:22:44;14.75;;;7.45;;
25913;SDS011;13718;50.922;5.346;2022-08-25T04:25:11;17.17;;;7.32;;
25913;SDS011;13718;50.922;5.346;2022-08-25T04:27:36;23.13;;;6.95;;
25913;SDS011;13718;50.922;5.346;2022-08-25T04:30:03;14.50;;;6.82;;
25913;SDS011;13718;50.922;5.346;2022-08-25T04:32:30;20.80;;;9.10;;
25913;SDS011;13718;50.922;5.346;2022-08-25T04:34:56;16.83;;;7.95;;
25913;SDS011;13718;50.922;5.346;2022-08-25T04:37:22;15.10;;;7.78;;
25913;SDS011;13718;50.922;5.346;2022-08-25T04:39:47;16.60;;;7.50;;
25913;SDS011;13718;50.922;5.346;2022-08-25T04:42:13;14.82;;;7.03;;
25913;SDS011;13718;50.922;5.346;2022-08-25T04:44:39;14.38;;;6.65;;
25913;SDS011;13718;50.922;5.346;2022-08-25T04:47:05;13.63;;;6.47;;
25913;SDS011;13718;50.922;5.346;2022-08-25T04:49:30;13.05;;;7.05;;
25913;SDS011;13718;50.922;5.346;2022-08-25T04:51:56;18.52;;;7.70;;
25913;SDS011;13718;50.922;5.346;2022-08-25T04:54:23;13.75;;;7.25;;
25913;SDS011;13718;50.922;5.346;2022-08-25T04:56:49;10.52;;;6.45;;
25913;SDS011;13718;50.922;5.346;2022-08-25T04:59:16;11.88;;;6.28;;
25913;SDS011;13718;50.922;5.346;2022-08-25T05:01:42;16.50;;;6.40;;
25913;SDS011;13718;50.922;5.346;2022-08-25T05:04:11;15.13;;;6.60;;
25913;SDS011;13718;50.922;5.346;2022-08-25T05:06:38;10.07;;;6.57;;
25913;SDS011;13718;50.922;5.346;2022-08-25T05:09:04;11.65;;;6.63;;
25913;SDS011;13718;50.922;5.346;2022-08-25T05:11:30;9.93;;;6.88;;
25913;SDS011;13718;50.922;5.346;2022-08-25T05:13:56;13.82;;;6.70;;
25913;SDS011;13718;50.922;5.346;2022-08-25T05:16:24;13.68;;;6.90;;
25913;SDS011;13718;50.922;5.346;2022-08-25T05:18:51;18.20;;;7.88;;
25913;SDS011;13718;50.922;5.346;2022-08-25T05:21:19;14.63;;;7.07;;
25913;SDS011;13718;50.922;5.346;2022-08-25T05:23:47;14.60;;;7.32;;
25913;SDS011;13718;50.922;5.346;2022-08-25T05:26:17;20.67;;;6.72;;
25913;SDS011;13718;50.922;5.346;2022-08-25T05:28:45;18.60;;;6.90;;
25913;SDS011;13718;50.922;5.346;2022-08-25T05:31:13;13.15;;;6.18;;
25913;SDS011;13718;50.922;5.346;2022-08-25T05:33:40;21.33;;;7.07;;
25913;SDS011;13718;50.922;5.346;2022-08-25T05:36:07;27.77;;;7.05;;
25913;SDS011;13718;50.922;5.346;2022-08-25T05:38:34;29.35;;;7.40;;
25913;SDS011;13718;50.922;5.346;2022-08-25T05:41:03;24.50;;;6.55;;
25913;SDS011;13718;50.922;5.346;2022-08-25T05:43:31;20.80;;;7.15;;
25913;SDS011;13718;50.922;5.346;2022-08-25T05:45:57;21.58;;;6.30;;
25913;SDS011;13718;50.922;5.346;2022-08-25T05:48:24;22.85;;;5.47;;
25913;SDS011;13718;50.922;5.346;2022-08-25T05:50:53;16.15;;;6.20;;
25913;SDS011;13718;50.922;5.346;2022-08-25T05:53:21;18.80;;;5.63;;
25913;SDS011;13718;50.922;5.346;2022-08-25T05:55:47;16.00;;;6.38;;
25913;SDS011;13718;50.922;5.346;2022-08-25T05:58:14;15.93;;;6.35;;
25913;SDS011;13718;50.922;5.346;2022-08-25T06:00:39;21.92;;;6.13;;
25913;SDS011;13718;50.922;5.346;2022-08-25T06:03:05;18.17;;;6.18;;
25913;SDS011;13718;50.922;5.346;2022-08-25T06:05:31;17.77;;;6.78;;
25913;SDS011;13718;50.922;5.346;2022-08-25T06:07:57;20.63;;;6.13;;
25913;SDS011;13718;50.922;5.346;2022-08-25T06:10:23;23.48;;;6.20;;
25913;SDS011;13718;50.922;5.346;2022-08-25T06:12:49;31.40;;;6.10;;
25913;SDS011;13718;50.922;5.346;2022-08-25T06:15:16;34.38;;;6.03;;
25913;SDS011;13718;50.922;5.346;2022-08-25T06:17:43;20.48;;;5.03;;
25913;SDS011;13718;50.922;5.346;2022-08-25T06:20:10;19.95;;;5.60;;
25913;SDS011;13718;50.922;5.346;2022-08-25T06:22:39;20.23;;;5.38;;
25913;SDS011;13718;50.922;5.346;2022-08-25T06:25:05;8.45;;;4.30;;
25913;SDS011;13718;50.922;5.346;2022-08-25T06:27:33;14.63;;;4.95;;
25913;SDS011;13718;50.922;5.346;2022-08-25T06:29:59;12.63;;;4.63;;
25913;SDS011;13718;50.922;5.346;2022-08-25T06:32:32;11.90;;;4.78;;
25913;SDS011;13718;50.922;5.346;2022-08-25T06:35:00;12.35;;;4.93;;
25913;SDS011;13718;50.922;5.346;2022-08-25T06:37:26;8.00;;;4.55;;
25913;SDS011;13718;50.922;5.346;2022-08-25T06:39:52;7.20;;;4.40;;
25913;SDS011;13718;50.922;5.346;2022-08-25T06:42:17;8.85;;;5.00;;
25913;SDS011;13718;50.922;5.346;2022-08-25T06:44:43;8.50;;;4.30;;
25913;SDS011;13718;50.922;5.346;2022-08-25T06:47:09;12.55;;;4.43;;
25913;SDS011;13718;50.922;5.346;2022-08-25T06:49:34;12.05;;;4.43;;
25913;SDS011;13718;50.922;5.346;2022-08-25T06:52:00;11.15;;;4.18;;
25913;SDS011;13718;50.922;5.346;2022-08-25T06:54:26;8.98;;;4.05;;
25913;SDS011;13718;50.922;5.346;2022-08-25T06:56:51;8.88;;;4.40;;
25913;SDS011;13718;50.922;5.346;2022-08-25T06:59:17;10.32;;;4.25;;
25913;SDS011;13718;50.922;5.346;2022-08-25T07:01:43;7.93;;;4.43;;
25913;SDS011;13718;50.922;5.346;2022-08-25T07:04:09;10.10;;;4.00;;
25913;SDS011;13718;50.922;5.346;2022-08-25T07:06:35;9.80;;;3.95;;
25913;SDS011;13718;50.922;5.346;2022-08-25T07:09:02;8.63;;;3.92;;
25913;SDS011;13718;50.922;5.346;2022-08-25T07:11:29;7.13;;;3.80;;
25913;SDS011;13718;50.922;5.346;2022-08-25T07:13:58;14.82;;;3.53;;
25913;SDS011;13718;50.922;5.346;2022-08-25T07:16:28;11.20;;;3.75;;
25913;SDS011;13718;50.922;5.346;2022-08-25T07:18:55;12.13;;;4.30;;
25913;SDS011;13718;50.922;5.346;2022-08-25T07:21:22;5.93;;;3.67;;
25913;SDS011;13718;50.922;5.346;2022-08-25T07:23:49;12.77;;;3.63;;
25913;SDS011;13718;50.922;5.346;2022-08-25T07:26:16;6.57;;;3.40;;
25913;SDS011;13718;50.922;5.346;2022-08-25T07:28:42;13.75;;;3.60;;
25913;SDS011;13718;50.922;5.346;2022-08-25T07:31:08;7.63;;;3.10;;
25913;SDS011;13718;50.922;5.346;2022-08-25T07:33:34;5.28;;;3.75;;
25913;SDS011;13718;50.922;5.346;2022-08-25T07:36:00;6.35;;;3.05;;
25913;SDS011;13718;50.922;5.346;2022-08-25T07:38:27;8.55;;;3.10;;
25913;SDS011;13718;50.922;5.346;2022-08-25T07:40:59;6.72;;;2.92;;
25913;SDS011;13718;50.922;5.346;2022-08-25T07:43:26;7.35;;;3.03;;
25913;SDS011;13718;50.922;5.346;2022-08-25T07:45:52;7.03;;;2.80;;
25913;SDS011;13718;50.922;5.346;2022-08-25T07:48:18;8.30;;;3.00;;
25913;SDS011;13718;50.922;5.346;2022-08-25T07:50:44;7.03;;;2.50;;
25913;SDS011;13718;50.922;5.346;2022-08-25T07:53:11;13.07;;;3.40;;
25913;SDS011;13718;50.922;5.346;2022-08-25T07:55:38;17.35;;;3.13;;
25913;SDS011;13718;50.922;5.346;2022-08-25T07:58:06;7.75;;;2.85;;
25913;SDS011;13718;50.922;5.346;2022-08-25T08:00:33;6.25;;;3.05;;
25913;SDS011;13718;50.922;5.346;2022-08-25T08:03:04;4.78;;;2.55;;
25913;SDS011;13718;50.922;5.346;2022-08-25T08:05:31;7.80;;;2.83;;
25913;SDS011;13718;50.922;5.346;2022-08-25T08:07:57;5.97;;;2.67;;
25913;SDS011;13718;50.922;5.346;2022-08-25T08:10:22;8.27;;;2.53;;
25913;SDS011;13718;50.922;5.346;2022-08-25T08:12:49;8.00;;;2.85;;
25913;SDS011;13718;50.922;5.346;2022-08-25T08:15:15;7.07;;;2.90;;
25913;SDS011;13718;50.922;5.346;2022-08-25T08:17:41;9.07;;;3.00;;
25913;SDS011;13718;50.922;5.346;2022-08-25T08:20:08;7.50;;;2.85;;
25913;SDS011;13718;50.922;5.346;2022-08-25T08:22:35;9.38;;;2.47;;
25913;SDS011;13718;50.922;5.346;2022-08-25T08:25:03;7.68;;;2.75;;
25913;SDS011;13718;50.922;5.346;2022-08-25T08:27:29;5.85;;;2.20;;
25913;SDS011;13718;50.922;5.346;2022-08-25T08:29:55;5.75;;;2.08;;
25913;SDS011;13718;50.922;5.346;2022-08-25T08:32:21;6.78;;;2.20;;
25913;SDS011;13718;50.922;5.346;2022-08-25T08:34:46;5.95;;;2.55;;
25913;SDS011;13718;50.922;5.346;2022-08-25T08:37:12;8.57;;;2.30;;
25913;SDS011;13718;50.922;5.346;2022-08-25T08:39:38;7.55;;;3.00;;
25913;SDS011;13718;50.922;5.346;2022-08-25T08:45:43;5.82;;;2.30;;
25913;SDS011;13718;50.922;5.346;2022-08-25T08:53:39;5.53;;;2.40;;
25913;SDS011;13718;50.922;5.346;2022-08-25T08:56:08;4.22;;;2.10;;
25913;SDS011;13718;50.922;5.346;2022-08-25T09:01:15;6.28;;;2.10;;
25913;SDS011;13718;50.922;5.346;2022-08-25T09:03:51;4.43;;;2.10;;
25913;SDS011;13718;50.922;5.346;2022-08-25T09:06:44;5.60;;;2.37;;
25913;SDS011;13718;50.922;5.346;2022-08-25T09:09:25;5.88;;;2.42;;
25913;SDS011;13718;50.922;5.346;2022-08-25T09:12:09;7.57;;;2.17;;
25913;SDS011;13718;50.922;5.346;2022-08-25T09:22:53;3.72;;;2.08;;
25913;SDS011;13718;50.922;5.346;2022-08-25T09:28:22;7.57;;;1.90;;
25913;SDS011;13718;50.922;5.346;2022-08-25T09:30:52;5.85;;;2.40;;
25913;SDS011;13718;50.922;5.346;2022-08-25T09:33:23;6.85;;;2.20;;
25913;SDS011;13718;50.922;5.346;2022-08-25T09:35:51;7.40;;;2.17;;
25913;SDS011;13718;50.922;5.346;2022-08-25T09:38:19;5.85;;;2.08;;
25913;SDS011;13718;50.922;5.346;2022-08-25T09:40:46;7.60;;;2.00;;
25913;SDS011;13718;50.922;5.346;2022-08-25T09:48:18;7.72;;;2.38;;
25913;SDS011;13718;50.922;5.346;2022-08-25T09:50:44;6.70;;;2.70;;
25913;SDS011;13718;50.922;5.346;2022-08-25T09:53:13;9.18;;;2.40;;
25913;SDS011;13718;50.922;5.346;2022-08-25T09:55:41;6.33;;;2.37;;
25913;SDS011;13718;50.922;5.346;2022-08-25T09:58:16;4.88;;;1.85;;
25913;SDS011;13718;50.922;5.346;2022-08-25T10:00:47;7.30;;;1.90;;
25913;SDS011;13718;50.922;5.346;2022-08-25T10:03:30;5.13;;;2.17;;
25913;SDS011;13718;50.922;5.346;2022-08-25T10:10:57;4.13;;;2.03;;
25913;SDS011;13718;50.922;5.346;2022-08-25T10:13:33;6.65;;;1.90;;
25913;SDS011;13718;50.922;5.346;2022-08-25T10:19:07;5.90;;;1.90;;
25913;SDS011;13718;50.922;5.346;2022-08-25T10:21:38;3.80;;;2.15;;
25913;SDS011;13718;50.922;5.346;2022-08-25T10:24:08;3.25;;;2.15;;
25913;SDS011;13718;50.922;5.346;2022-08-25T10:29:27;6.53;;;2.05;;
25913;SDS011;13718;50.922;5.346;2022-08-25T10:32:21;5.75;;;2.03;;
25913;SDS011;13718;50.922;5.346;2022-08-25T10:34:58;7.82;;;2.42;;
25913;SDS011;13718;50.922;5.346;2022-08-25T10:45:31;11.75;;;1.98;;
25913;SDS011;13718;50.922;5.346;2022-08-25T11:01:56;3.97;;;1.80;;
25913;SDS011;13718;50.922;5.346;2022-08-25T11:07:22;5.13;;;2.20;;
25913;SDS011;13718;50.922;5.346;2022-08-25T11:09:53;4.18;;;2.22;;
25913;SDS011;13718;50.922;5.346;2022-08-25T11:12:32;5.43;;;2.08;;
25913;SDS011;13718;50.922;5.346;2022-08-25T11:15:06;4.80;;;2.03;;
25913;SDS011;13718;50.922;5.346;2022-08-25T11:17:51;7.47;;;2.35;;
25913;SDS011;13718;50.922;5.346;2022-08-25T11:20:21;7.38;;;2.30;;
25913;SDS011;13718;50.922;5.346;2022-08-25T11:25:37;10.85;;;2.58;;
25913;SDS011;13718;50.922;5.346;2022-08-25T11:28:10;2.95;;;1.90;;
25913;SDS011;13718;50.922;5.346;2022-08-25T11:30:39;7.90;;;2.20;;
25913;SDS011;13718;50.922;5.346;2022-08-25T11:33:05;4.65;;;2.00;;
25913;SDS011;13718;50.922;5.346;2022-08-25T11:35:37;3.65;;;2.35;;
25913;SDS011;13718;50.922;5.346;2022-08-25T11:40:40;2.88;;;2.10;;
25913;SDS011;13718;50.922;5.346;2022-08-25T11:46:08;7.07;;;2.30;;
25913;SDS011;13718;50.922;5.346;2022-08-25T11:57:01;5.60;;;2.67;;
25913;SDS011;13718;50.922;5.346;2022-08-25T12:04:59;6.70;;;2.83;;
25913;SDS011;13718;50.922;5.346;2022-08-25T12:07:27;7.00;;;3.25;;
25913;SDS011;13718;50.922;5.346;2022-08-25T12:12:26;5.75;;;2.88;;
25913;SDS011;13718;50.922;5.346;2022-08-25T12:26:35;5.90;;;2.67;;
25913;SDS011;13718;50.922;5.346;2022-08-25T12:29:14;5.28;;;2.70;;
25913;SDS011;13718;50.922;5.346;2022-08-25T12:34:20;4.95;;;2.67;;
25913;SDS011;13718;50.922;5.346;2022-08-25T12:37:11;5.70;;;2.92;;
25913;SDS011;13718;50.922;5.346;2022-08-25T12:39:42;9.43;;;2.75;;
25913;SDS011;13718;50.922;5.346;2022-08-25T12:47:43;10.90;;;3.05;;
25913;SDS011;13718;50.922;5.346;2022-08-25T12:53:17;3.75;;;2.22;;
25913;SDS011;13718;50.922;5.346;2022-08-25T12:55:59;5.57;;;2.35;;
25913;SDS011;13718;50.922;5.346;2022-08-25T12:58:48;7.22;;;2.58;;
25913;SDS011;13718;50.922;5.346;2022-08-25T13:07:04;8.30;;;2.47;;
25913;SDS011;13718;50.922;5.346;2022-08-25T13:12:29;7.55;;;2.70;;
25913;SDS011;13718;50.922;5.346;2022-08-25T13:15:24;5.05;;;2.38;;
25913;SDS011;13718;50.922;5.346;2022-08-25T13:20:36;5.80;;;2.35;;
25913;SDS011;13718;50.922;5.346;2022-08-25T13:23:02;3.78;;;2.08;;
25913;SDS011;13718;50.922;5.346;2022-08-25T13:25:28;7.18;;;2.70;;
25913;SDS011;13718;50.922;5.346;2022-08-25T13:27:56;8.85;;;2.28;;
25913;SDS011;13718;50.922;5.346;2022-08-25T13:32:54;5.65;;;2.33;;
25913;SDS011;13718;50.922;5.346;2022-08-25T13:35:25;9.05;;;2.67;;
25913;SDS011;13718;50.922;5.346;2022-08-25T13:37:53;5.85;;;2.55;;
25913;SDS011;13718;50.922;5.346;2022-08-25T13:40:23;5.57;;;2.50;;
25913;SDS011;13718;50.922;5.346;2022-08-25T13:42:58;8.07;;;2.72;;
25913;SDS011;13718;50.922;5.346;2022-08-25T13:45:26;8.55;;;2.67;;
25913;SDS011;13718;50.922;5.346;2022-08-25T13:47:54;4.65;;;2.65;;
25913;SDS011;13718;50.922;5.346;2022-08-25T13:55:24;4.22;;;2.35;;
25913;SDS011;13718;50.922;5.346;2022-08-25T13:57:54;3.87;;;2.50;;
25913;SDS011;13718;50.922;5.346;2022-08-25T14:00:28;5.15;;;2.05;;
25913;SDS011;13718;50.922;5.346;2022-08-25T14:02:57;9.43;;;2.80;;
25913;SDS011;13718;50.922;5.346;2022-08-25T14:05:34;7.95;;;2.75;;
25913;SDS011;13718;50.922;5.346;2022-08-25T14:08:06;6.80;;;2.80;;
25913;SDS011;13718;50.922;5.346;2022-08-25T14:11:00;4.03;;;2.50;;
25913;SDS011;13718;50.922;5.346;2022-08-25T14:13:42;5.43;;;2.83;;
25913;SDS011;13718;50.922;5.346;2022-08-25T14:16:11;5.95;;;2.50;;
25913;SDS011;13718;50.922;5.346;2022-08-25T14:18:46;4.78;;;2.40;;
25913;SDS011;13718;50.922;5.346;2022-08-25T14:21:15;5.50;;;2.67;;
25913;SDS011;13718;50.922;5.346;2022-08-25T14:23:43;3.97;;;2.40;;
25913;SDS011;13718;50.922;5.346;2022-08-25T14:26:08;8.15;;;2.85;;
25913;SDS011;13718;50.922;5.346;2022-08-25T14:28:34;6.57;;;2.35;;
25913;SDS011;13718;50.922;5.346;2022-08-25T14:31:01;4.82;;;2.47;;
25913;SDS011;13718;50.922;5.346;2022-08-25T14:33:33;4.75;;;2.70;;
25913;SDS011;13718;50.922;5.346;2022-08-25T14:36:07;5.47;;;2.70;;
25913;SDS011;13718;50.922;5.346;2022-08-25T14:38:34;5.05;;;2.40;;
25913;SDS011;13718;50.922;5.346;2022-08-25T14:41:02;3.70;;;2.17;;
25913;SDS011;13718;50.922;5.346;2022-08-25T14:43:29;6.88;;;2.72;;
25913;SDS011;13718;50.922;5.346;2022-08-25T14:45:55;4.30;;;2.60;;
25913;SDS011;13718;50.922;5.346;2022-08-25T14:50:55;7.32;;;2.63;;
25913;SDS011;13718;50.922;5.346;2022-08-25T14:53:22;4.00;;;2.40;;
25913;SDS011;13718;50.922;5.346;2022-08-25T14:55:48;4.45;;;2.40;;
25913;SDS011;13718;50.922;5.346;2022-08-25T14:58:17;5.90;;;2.28;;
25913;SDS011;13718;50.922;5.346;2022-08-25T15:00:44;7.38;;;2.60;;
25913;SDS011;13718;50.922;5.346;2022-08-25T15:03:11;7.50;;;3.00;;
25913;SDS011;13718;50.922;5.346;2022-08-25T15:05:39;5.95;;;2.25;;
25913;SDS011;13718;50.922;5.346;2022-08-25T15:08:06;9.05;;;2.72;;
25913;SDS011;13718;50.922;5.346;2022-08-25T15:10:52;4.28;;;2.22;;
25913;SDS011;13718;50.922;5.346;2022-08-25T15:13:17;3.70;;;2.28;;
25913;SDS011;13718;50.922;5.346;2022-08-25T15:15:43;7.38;;;2.35;;
25913;SDS011;13718;50.922;5.346;2022-08-25T15:18:09;3.75;;;2.30;;
25913;SDS011;13718;50.922;5.346;2022-08-25T15:20:35;6.13;;;2.38;;
25913;SDS011;13718;50.922;5.346;2022-08-25T15:23:00;3.72;;;2.10;;
25913;SDS011;13718;50.922;5.346;2022-08-25T15:25:26;4.35;;;2.15;;
25913;SDS011;13718;50.922;5.346;2022-08-25T15:27:53;6.53;;;2.22;;
25913;SDS011;13718;50.922;5.346;2022-08-25T15:30:18;4.65;;;2.42;;
25913;SDS011;13718;50.922;5.346;2022-08-25T15:32:44;9.93;;;2.30;;
25913;SDS011;13718;50.922;5.346;2022-08-25T15:35:10;4.05;;;2.75;;
25913;SDS011;13718;50.922;5.346;2022-08-25T15:37:36;4.05;;;2.38;;
25913;SDS011;13718;50.922;5.346;2022-08-25T15:40:02;7.68;;;2.58;;
25913;SDS011;13718;50.922;5.346;2022-08-25T15:42:28;11.50;;;2.45;;
25913;SDS011;13718;50.922;5.346;2022-08-25T15:44:54;7.95;;;2.50;;
25913;SDS011;13718;50.922;5.346;2022-08-25T15:47:20;3.90;;;2.65;;
25913;SDS011;13718;50.922;5.346;2022-08-25T15:49:46;5.05;;;3.05;;
25913;SDS011;13718;50.922;5.346;2022-08-25T15:52:12;4.93;;;2.15;;
25913;SDS011;13718;50.922;5.346;2022-08-25T15:54:38;5.88;;;2.45;;
25913;SDS011;13718;50.922;5.346;2022-08-25T15:57:03;8.77;;;2.80;;
25913;SDS011;13718;50.922;5.346;2022-08-25T15:59:29;6.15;;;2.65;;
25913;SDS011;13718;50.922;5.346;2022-08-25T16:01:55;4.72;;;2.45;;
25913;SDS011;13718;50.922;5.346;2022-08-25T16:04:21;5.18;;;2.50;;
25913;SDS011;13718;50.922;5.346;2022-08-25T16:06:48;6.07;;;2.65;;
25913;SDS011;13718;50.922;5.346;2022-08-25T16:09:14;10.77;;;2.45;;
25913;SDS011;13718;50.922;5.346;2022-08-25T16:11:39;5.15;;;2.35;;
25913;SDS011;13718;50.922;5.346;2022-08-25T16:14:07;4.03;;;2.63;;
25913;SDS011;13718;50.922;5.346;2022-08-25T16:16:33;5.32;;;2.65;;
25913;SDS011;13718;50.922;5.346;2022-08-25T16:18:59;5.72;;;2.70;;
25913;SDS011;13718;50.922;5.346;2022-08-25T16:21:26;4.03;;;2.45;;
25913;SDS011;13718;50.922;5.346;2022-08-25T16:23:55;4.65;;;2.40;;
25913;SDS011;13718;50.922;5.346;2022-08-25T16:26:23;5.38;;;2.47;;
25913;SDS011;13718;50.922;5.346;2022-08-25T16:28:50;6.63;;;2.45;;
25913;SDS011;13718;50.922;5.346;2022-08-25T16:31:16;5.07;;;3.20;;
25913;SDS011;13718;50.922;5.346;2022-08-25T16:33:42;4.95;;;2.42;;
25913;SDS011;13718;50.922;5.346;2022-08-25T16:36:10;8.15;;;2.78;;
25913;SDS011;13718;50.922;5.346;2022-08-25T16:38:46;6.75;;;2.70;;
25913;SDS011;13718;50.922;5.346;2022-08-25T16:41:14;7.15;;;2.60;;
25913;SDS011;13718;50.922;5.346;2022-08-25T16:43:41;5.00;;;2.42;;
25913;SDS011;13718;50.922;5.346;2022-08-25T16:46:08;4.57;;;2.90;;
25913;SDS011;13718;50.922;5.346;2022-08-25T16:48:36;6.65;;;2.70;;
25913;SDS011;13718;50.922;5.346;2022-08-25T16:51:06;7.55;;;2.53;;
25913;SDS011;13718;50.922;5.346;2022-08-25T16:53:35;5.43;;;2.50;;
25913;SDS011;13718;50.922;5.346;2022-08-25T16:56:20;7.50;;;2.90;;
25913;SDS011;13718;50.922;5.346;2022-08-25T16:58:55;5.60;;;2.63;;
25913;SDS011;13718;50.922;5.346;2022-08-25T17:01:22;7.40;;;2.50;;
25913;SDS011;13718;50.922;5.346;2022-08-25T17:03:52;4.38;;;2.63;;
25913;SDS011;13718;50.922;5.346;2022-08-25T17:06:20;5.45;;;2.30;;